Hovedside
METAR-TAF:

METAR-TAF

Lufthavner :

Dubai internasjonale lufthavn

Dubai, De forente arabiske emirater

breddegrad: 25-15-10N, lengdegrad: 055-21-52E, høyde over havet: 8 m

Gjeldene værobservasjon

Denne rapporten ble laget for 17 minutter siden, klokken 04:00 UTC
Vind 6 kt fra skiftende retning
Temperatur 31°C
Luftfuktighet 63%
Trykk 1013 hPa
Sikt 10 km eller mer
ingen skyer under 1500 m og ingen bygeskyer

METAR: OMDB 240400Z VRB06KT CAVOK 31/23 Q1013 NOSIG

Tid: 08:17 (04:17 UTC)

Varsel

Denne rapporten ble laget for 5 timer og 17 minutter siden, klokken 23:00 UTC
Varsel gyldig fra 24. klokken 00 UTC til 25. klokken 06 UTC
Vind 12 kt fra Vest
Sikt 10 km eller mer
ingen skyer under 1500 m og ingen bygeskyer
Sannsynlighet 40%
fra 24. klokken 00 UTC til 24. klokken 04 UTC
Vind 5 kt fra Sør-sørvest
Blir
fra 24. klokken 16 UTC til 24. klokken 18 UTC
Vind 6 kt fra Sør-sørvest

TAF: OMDB 232300Z 2400/2506 26012KT CAVOK PROB40 2400/2404 20005KT BECMG 2416/2418 20006KT

Værobservasjoner og værvarsel for over 4000 flyplasser (METAR- og TAF-rapporter).

Tilgjengelige stasjoner er representert av de røde og gule prikkene på kartet.

Hold musepekeren over prikken for å se navnet på stasjonen.

Klikk så for å se værobservasjoner og -varsler.

For å forandre kartet kan du klikke på den grønne knappen med svart kryss for å zoome inn, på den grønne knappen med strek for å zoome ut, eller på de grønne pilene for å se tilstøtende kart.


METAR-TAF: